createdAt,value
2022-08-16T04:00:41.563Z,7.22
2022-08-16T04:03:47.095Z,5.22
2022-08-16T04:06:52.578Z,5.68
2022-08-16T04:09:59.780Z,5.60
2022-08-16T04:14:00.437Z,6.00
2022-08-16T04:16:46.486Z,5.70
2022-08-16T04:19:58.214Z,5.87
2022-08-16T04:23:02.969Z,5.87
2022-08-16T04:26:07.125Z,4.75
2022-08-16T04:29:24.945Z,5.82
2022-08-16T04:32:27.981Z,5.32
2022-08-16T04:35:34.021Z,5.85
2022-08-16T04:38:37.673Z,5.35
2022-08-16T04:41:41.140Z,5.18
2022-08-16T04:44:53.485Z,5.32
2022-08-16T04:48:00.118Z,5.62
2022-08-16T04:51:07.875Z,5.90
2022-08-16T04:54:15.393Z,6.30
2022-08-16T04:57:22.450Z,5.93
2022-08-16T05:00:36.148Z,5.35
2022-08-16T05:03:41.750Z,5.93
2022-08-16T05:07:02.957Z,6.43
2022-08-16T05:10:19.844Z,6.05
2022-08-16T05:13:40.600Z,5.25
2022-08-16T05:16:45.580Z,4.97
2022-08-16T05:19:57.666Z,5.80
2022-08-16T05:26:04.977Z,4.85
2022-08-16T05:29:11.154Z,5.70
2022-08-16T05:32:32.816Z,6.35
2022-08-16T05:35:39.613Z,6.78
2022-08-16T05:38:47.022Z,5.60
2022-08-16T05:41:51.937Z,6.20
2022-08-16T05:44:55.202Z,6.18
2022-08-16T05:48:01.794Z,6.00
2022-08-16T05:51:10.392Z,7.68
2022-08-16T05:54:17.464Z,7.03
2022-08-16T05:57:27.850Z,6.72
2022-08-16T06:00:38.459Z,5.75
2022-08-16T06:06:56.480Z,7.87
2022-08-16T06:10:01.457Z,7.43
2022-08-16T06:13:04.819Z,7.55
2022-08-16T06:19:12.403Z,6.68
2022-08-16T06:22:19.459Z,6.53
2022-08-16T06:25:40.451Z,6.20
2022-08-16T06:28:43.557Z,7.37
2022-08-16T06:31:50.435Z,7.40
2022-08-16T06:34:55.666Z,6.45
2022-08-16T06:38:00.841Z,7.85
2022-08-16T06:41:13.572Z,6.78
2022-08-16T06:44:21.024Z,7.12
2022-08-16T06:47:29.007Z,7.45
2022-08-16T06:50:50.170Z,6.85
2022-08-16T06:53:53.033Z,6.68
2022-08-16T06:56:55.758Z,7.12
2022-08-16T07:03:28.135Z,7.85
2022-08-16T07:06:31.498Z,7.70
2022-08-16T07:09:34.067Z,6.55
2022-08-16T07:12:47.401Z,8.65
2022-08-16T07:16:00.753Z,6.93
2022-08-16T07:19:05.077Z,7.15
2022-08-16T07:22:38.334Z,6.30
2022-08-16T07:25:31.313Z,6.90
2022-08-16T07:28:35.555Z,6.97
2022-08-16T07:31:39.564Z,5.18
2022-08-16T07:34:48.623Z,5.15
2022-08-16T07:37:53.319Z,7.68
2022-08-16T07:41:01.191Z,5.50
2022-08-16T07:44:16.302Z,5.70
2022-08-16T07:47:19.846Z,4.22
2022-08-16T07:50:55.837Z,5.55
2022-08-16T07:54:04.150Z,4.97
2022-08-16T07:57:14.078Z,5.87
2022-08-16T08:00:25.227Z,6.30
2022-08-16T08:03:35.939Z,5.00
2022-08-16T08:06:42.574Z,5.18
2022-08-16T08:09:46.181Z,4.80
2022-08-16T08:15:53.463Z,4.55
2022-08-16T08:19:01.027Z,5.25
2022-08-16T08:22:06.482Z,4.70
2022-08-16T08:25:09.430Z,4.45
2022-08-16T08:28:17.646Z,4.25
2022-08-16T08:31:20.305Z,3.60
2022-08-16T08:34:23.727Z,3.58
2022-08-16T08:37:26.999Z,5.25
2022-08-16T08:40:56.900Z,3.67
2022-08-16T08:43:59.882Z,4.25
2022-08-16T08:47:09.245Z,4.50
2022-08-16T08:50:31.563Z,5.03
2022-08-16T08:53:36.483Z,4.32
2022-08-16T08:56:45.377Z,4.75
2022-08-16T08:59:52.900Z,4.53
2022-08-16T09:02:57.366Z,3.95
2022-08-16T09:06:01.575Z,5.15
2022-08-16T09:09:06.574Z,5.75
2022-08-16T09:12:31.252Z,4.65
2022-08-16T09:15:38.649Z,4.30
2022-08-16T09:18:41.606Z,5.82
2022-08-16T09:21:44.549Z,5.18
2022-08-16T09:25:11.010Z,4.85
2022-08-16T09:29:15.375Z,5.40
2022-08-16T09:31:43.553Z,5.97
2022-08-16T09:34:47.345Z,8.60
2022-08-16T09:38:00.951Z,6.55
2022-08-16T09:42:56.594Z,4.12
2022-08-16T09:45:57.781Z,3.50
2022-08-16T09:52:07.289Z,4.90
2022-08-16T09:55:12.497Z,4.65
2022-08-16T09:58:41.893Z,5.03
2022-08-16T10:04:54.292Z,4.10
2022-08-16T10:07:57.357Z,4.20
2022-08-16T10:11:23.911Z,4.47
2022-08-16T10:14:32.965Z,4.05
2022-08-16T10:17:38.659Z,4.03
2022-08-16T10:20:45.811Z,4.55
2022-08-16T10:23:53.609Z,4.72
2022-08-16T10:27:17.825Z,3.05
2022-08-16T10:30:26.249Z,3.75
2022-08-16T10:33:34.000Z,4.07
2022-08-16T10:36:39.188Z,4.90
2022-08-16T10:39:42.506Z,5.15
2022-08-16T10:42:45.467Z,3.28
2022-08-16T10:46:00.436Z,4.03
2022-08-16T10:49:05.096Z,3.67
2022-08-16T10:52:18.619Z,3.50
2022-08-16T10:55:40.768Z,3.53
2022-08-16T10:58:44.555Z,3.97
2022-08-16T11:05:16.888Z,3.78
2022-08-16T11:08:23.571Z,3.92
2022-08-16T11:12:14.024Z,3.67
2022-08-16T11:15:17.966Z,4.03
2022-08-16T11:19:04.911Z,3.85
2022-08-16T11:25:59.613Z,4.62
2022-08-16T11:31:54.550Z,4.18
2022-08-16T11:35:15.786Z,4.03
2022-08-16T11:38:46.857Z,4.45
2022-08-16T11:41:45.170Z,5.68
2022-08-16T11:44:56.879Z,4.03
2022-08-16T11:48:00.363Z,3.15
2022-08-16T11:51:04.698Z,2.83
2022-08-16T11:54:09.038Z,3.47
2022-08-16T11:57:25.322Z,3.37
2022-08-16T12:00:33.761Z,3.60
2022-08-16T12:03:53.504Z,3.22
2022-08-16T12:06:55.928Z,3.17
2022-08-16T12:10:00.451Z,3.10
2022-08-16T12:13:04.019Z,3.08
2022-08-16T12:16:08.222Z,4.22
2022-08-16T12:19:13.887Z,3.25
2022-08-16T12:22:18.953Z,4.43
2022-08-16T12:25:25.555Z,3.33
2022-08-16T12:28:54.945Z,3.20
2022-08-16T12:32:01.262Z,3.15
2022-08-16T12:35:19.245Z,2.85
2022-08-16T12:38:41.696Z,4.18
2022-08-16T12:41:46.656Z,3.40
2022-08-16T12:48:32.643Z,3.42
2022-08-16T12:51:57.951Z,2.90
2022-08-16T12:55:04.215Z,2.80
2022-08-16T12:58:13.773Z,3.22
2022-08-16T13:04:35.454Z,3.35
2022-08-16T13:07:45.260Z,3.60
2022-08-16T13:10:56.865Z,3.85
2022-08-16T13:13:59.483Z,3.90
2022-08-16T13:17:06.704Z,3.75
2022-08-16T13:20:14.739Z,4.35
2022-08-16T13:23:18.693Z,4.07
2022-08-16T13:26:22.655Z,4.00
2022-08-16T13:29:26.019Z,4.72
2022-08-16T13:32:42.949Z,4.30
2022-08-16T13:39:03.528Z,4.35
2022-08-16T13:42:11.860Z,3.87
2022-08-16T13:45:16.218Z,4.65
2022-08-16T13:48:21.732Z,14.87
2022-08-16T13:51:29.266Z,4.50
2022-08-16T13:54:32.969Z,5.05
2022-08-16T13:57:53.647Z,4.25
2022-08-16T14:01:00.665Z,4.75
2022-08-16T14:04:05.084Z,3.35
2022-08-16T14:07:11.467Z,3.55
2022-08-16T14:10:15.394Z,3.60
2022-08-16T14:13:21.094Z,3.20
2022-08-16T14:16:33.530Z,3.42
2022-08-16T14:19:36.624Z,3.83
2022-08-16T14:22:42.553Z,4.15
2022-08-16T14:25:45.984Z,3.40
2022-08-16T14:29:01.241Z,3.60
2022-08-16T14:32:07.175Z,3.72
2022-08-16T14:35:13.795Z,3.90
2022-08-16T14:38:18.531Z,3.45
2022-08-16T14:41:22.207Z,3.58
2022-08-16T14:44:26.185Z,3.47
2022-08-16T14:47:34.095Z,3.28
2022-08-16T14:50:42.006Z,3.42
2022-08-16T14:53:45.471Z,3.35
2022-08-16T14:56:55.039Z,4.10
2022-08-16T15:00:04.739Z,3.03
2022-08-16T15:03:10.744Z,3.37
2022-08-16T15:06:14.543Z,3.25
2022-08-16T15:09:18.601Z,2.97
2022-08-16T15:12:26.584Z,3.60
